Time,TemperatureF,DewpointF,PressureIn,WindDirection,WindDirectionDegrees,WindSpeedMPH,WindSpeedGustMPH,Humidity,HourlyPrecipIn,Conditions,Clouds,dailyrainin,SoftwareType,DateUTC
2013-03-26 00:04:00,36.9,27.3,30.06,ENE,78,10.4,10.4,68,0.00,BKN,FEW,0.00,WeatherDisplay:10.37,2013-03-26 00:04:00,
2013-03-26 00:09:00,36.9,27.3,30.06,ENE,78,10.4,10.4,68,0.00,BKN,FEW,0.00,WeatherDisplay:10.37,2013-03-26 00:09:00,
2013-03-26 00:14:00,36.5,27.3,30.06,ENE,78,9.2,9.2,69,0.00,BKN,FEW,0.00,WeatherDisplay:10.37,2013-03-26 00:14:00,
2013-03-26 00:19:00,36.3,26.8,30.06,ENE,78,8.1,8.1,68,0.00,BKN,FEW,0.00,WeatherDisplay:10.37,2013-03-26 00:19:00,
2013-03-26 00:24:00,36.3,26.4,30.06,ENE,78,13.8,13.8,67,0.00,BKN,FEW,0.00,WeatherDisplay:10.37,2013-03-26 00:24:00,
2013-03-26 00:29:00,36.3,26.4,30.06,ESE,122,15.0,15.0,67,0.00,BKN,FEW,0.00,WeatherDisplay:10.37,2013-03-26 00:29:00,
2013-03-26 00:34:00,36.5,26.6,30.06,ENE,78,12.6,12.6,67,0.00,BKN,FEW,0.00,WeatherDisplay:10.37,2013-03-26 00:34:00,
2013-03-26 00:39:00,36.5,26.9,30.06,ENE,78,12.7,12.7,68,0.00,BKN,FEW,0.00,WeatherDisplay:10.37,2013-03-26 00:39:00,
2013-03-26 00:44:00,36.5,27.3,30.06,East,100,19.6,19.6,69,0.00,BKN,FEW,0.00,WeatherDisplay:10.37,2013-03-26 00:44:00,
2013-03-26 00:49:00,36.3,27.5,30.06,ENE,78,9.2,9.2,70,0.00,BKN,FEW,0.00,WeatherDisplay:10.37,2013-03-26 00:49:00,
2013-03-26 00:54:00,36.3,27.5,30.06,East,100,9.2,9.2,70,0.00,BKN,FEW,0.00,WeatherDisplay:10.37,2013-03-26 00:54:00,
2013-03-26 00:59:00,36.3,27.5,30.06,ESE,122,10.4,10.4,70,0.00,BKN,FEW,0.00,WeatherDisplay:10.37,2013-03-26 00:59:00,
2013-03-26 01:04:00,36.3,26.8,30.06,ENE,78,5.8,6.6,68,0.00,BKN,FEW,0.00,WeatherDisplay:10.37,2013-03-26 01:04:00,
2013-03-26 01:09:00,36.3,26.8,30.06,ENE,78,6.9,6.9,68,0.00,BKN,FEW,0.00,WeatherDisplay:10.37,2013-03-26 01:09:00,
2013-03-26 01:14:00,36.3,27.1,30.06,East,100,3.5,5.4,69,0.00,BKN,FEW,0.00,WeatherDisplay:10.37,2013-03-26 01:14:00,
2013-03-26 01:19:00,36.3,27.1,30.06,ENE,78,10.4,10.4,69,0.00,BKN,FEW,0.00,WeatherDisplay:10.37,2013-03-26 01:19:00,
2013-03-26 01:24:00,36.3,27.5,30.06,ENE,78,8.1,8.1,70,0.00,BKN,FEW,0.00,WeatherDisplay:10.37,2013-03-26 01:24:00,
2013-03-26 01:29:00,36.3,27.8,30.06,ENE,78,8.1,8.1,71,0.00,BKN,FEW,0.00,WeatherDisplay:10.37,2013-03-26 01:29:00,
2013-03-26 01:34:00,36.1,27.6,30.06,ENE,78,5.8,6.5,71,0.00,BKN,FEW,0.00,WeatherDisplay:10.37,2013-03-26 01:34:00,
2013-03-26 01:39:00,36.1,27.3,30.06,ENE,78,12.7,12.7,70,0.00,BKN,FEW,0.00,WeatherDisplay:10.37,2013-03-26 01:39:00,
2013-03-26 01:44:00,36.3,27.1,30.06,ENE,78,14.4,14.4,69,0.00,BKN,FEW,0.00,WeatherDisplay:10.37,2013-03-26 01:44:00,
2013-03-26 01:49:00,36.3,27.1,30.06,ENE,78,8.1,8.1,69,0.00,BKN,FEW,0.00,WeatherDisplay:10.37,2013-03-26 01:49:00,
2013-03-26 01:54:00,36.3,27.1,30.06,ENE,78,13.8,13.8,69,0.00,BKN,FEW,0.00,WeatherDisplay:10.37,2013-03-26 01:54:00,
2013-03-26 01:59:00,36.3,27.1,30.06,East,100,12.7,12.7,69,0.00,BKN,FEW,0.00,WeatherDisplay:10.37,2013-03-26 01:59:00,
2013-03-26 02:04:00,36.3,26.8,30.06,ENE,78,10.4,10.4,68,0.00,BKN,FEW,0.00,WeatherDisplay:10.37,2013-03-26 02:04:00,
2013-03-26 02:09:00,36.1,26.6,30.06,ENE,78,6.9,8.2,68,0.00,BKN,FEW,0.00,WeatherDisplay:10.37,2013-03-26 02:09:00,
2013-03-26 02:14:00,36.1,26.2,30.06,ENE,78,10.4,10.4,67,0.00,BKN,FEW,0.00,WeatherDisplay:10.37,2013-03-26 02:14:00,
2013-03-26 02:19:00,36.1,26.9,30.06,ENE,78,10.5,10.5,69,0.00,BKN,FEW,0.00,WeatherDisplay:10.37,2013-03-26 02:19:00,
2013-03-26 02:25:00,36.1,27.3,30.06,ENE,78,8.1,8.1,70,0.00,BKN,FEW,0.00,WeatherDisplay:10.37,2013-03-26 02:25:00,
2013-03-26 02:30:00,36.1,27.3,30.06,ENE,78,6.9,7.2,70,0.00,BKN,FEW,0.00,WeatherDisplay:10.37,2013-03-26 02:30:00,
2013-03-26 02:35:00,36.1,27.3,30.06,ENE,78,15.0,15.0,70,0.00,BKN,FEW,0.00,WeatherDisplay:10.37,2013-03-26 02:35:00,
2013-03-26 02:40:00,36.1,27.6,30.06,ENE,78,8.1,8.1,71,0.00,BKN,FEW,0.00,WeatherDisplay:10.37,2013-03-26 02:40:00,
2013-03-26 02:45:00,36.1,27.6,30.06,ENE,78,12.7,12.7,71,0.00,BKN,FEW,0.00,WeatherDisplay:10.37,2013-03-26 02:45:00,
2013-03-26 02:50:00,35.8,28.0,30.06,ESE,122,8.1,8.1,73,0.00,BKN,FEW,0.00,WeatherDisplay:10.37,2013-03-26 02:50:00,
2013-03-26 02:55:00,35.6,28.1,30.06,ENE,78,10.4,10.4,74,0.00,BKN,FEW,0.00,WeatherDisplay:10.37,2013-03-26 02:55:00,
2013-03-26 03:00:00,35.6,28.1,30.06,ENE,78,9.2,9.2,74,0.00,BKN,FEW,0.00,WeatherDisplay:10.37,2013-03-26 03:00:00,
2013-03-26 03:05:00,35.6,28.1,30.06,ENE,78,8.1,8.1,74,0.00,-SN,FEW,0.00,WeatherDisplay:10.37,2013-03-26 03:05:00,
2013-03-26 03:10:00,35.6,28.1,30.06,ENE,78,8.5,8.5,74,0.00,-SN,FEW,0.00,WeatherDisplay:10.37,2013-03-26 03:10:00,
2013-03-26 03:15:00,35.8,27.6,30.06,ENE,78,10.4,10.4,72,0.00,-SN,FEW,0.00,WeatherDisplay:10.37,2013-03-26 03:15:00,
2013-03-26 03:20:00,35.6,27.1,30.06,ENE,78,9.2,9.2,71,0.00,-SN,FEW,0.00,WeatherDisplay:10.37,2013-03-26 03:20:00,
2013-03-26 03:25:00,35.8,27.3,30.06,ENE,78,6.9,7.0,71,0.00,-SN,FEW,0.00,WeatherDisplay:10.37,2013-03-26 03:25:00,
2013-03-26 03:30:00,35.6,27.5,30.06,ENE,78,8.1,8.1,72,0.00,-SN,FEW,0.00,WeatherDisplay:10.37,2013-03-26 03:30:00,
2013-03-26 03:35:00,35.6,27.5,30.06,ENE,78,9.2,9.2,72,0.00,-SN,FEW,0.00,WeatherDisplay:10.37,2013-03-26 03:35:00,
2013-03-26 03:40:00,35.6,27.8,30.06,ENE,78,9.2,9.2,73,0.00,-SN,FEW,0.00,WeatherDisplay:10.37,2013-03-26 03:40:00,
2013-03-26 03:45:00,35.4,28.0,30.06,ENE,78,9.2,9.2,74,0.00,-SN,FEW,0.00,WeatherDisplay:10.37,2013-03-26 03:45:00,
2013-03-26 03:50:00,35.4,28.3,30.06,ENE,78,9.2,9.2,75,0.00,-SN,FEW,0.00,WeatherDisplay:10.37,2013-03-26 03:50:00,
2013-03-26 03:55:00,35.4,28.6,30.06,ENE,78,11.5,11.5,76,0.00,-SN,FEW,0.00,WeatherDisplay:10.37,2013-03-26 03:55:00,
2013-03-26 04:00:00,35.4,29.2,30.06,ENE,78,8.1,8.1,78,0.00,-SN,FEW,0.00,WeatherDisplay:10.37,2013-03-26 04:00:00,
2013-03-26 04:05:00,34.9,29.0,30.06,ENE,78,8.1,8.1,79,0.00,-SN,FEW,0.00,WeatherDisplay:10.37,2013-03-26 04:05:00,
2013-03-26 04:10:00,34.7,28.9,30.06,ENE,78,9.2,9.2,79,0.00,-SN,FEW,0.00,WeatherDisplay:10.37,2013-03-26 04:10:00,
2013-03-26 04:15:00,34.7,28.9,30.06,East,100,6.9,6.9,79,0.00,-SN,FEW,0.00,WeatherDisplay:10.37,2013-03-26 04:15:00,
2013-03-26 04:20:00,34.7,28.5,30.06,ENE,78,6.9,6.9,78,0.00,-SN,FEW,0.00,WeatherDisplay:10.37,2013-03-26 04:20:00,
2013-03-26 04:25:00,34.7,28.5,30.06,ENE,78,5.8,5.8,78,0.00,-SN,FEW,0.00,WeatherDisplay:10.37,2013-03-26 04:25:00,
2013-03-26 04:30:00,34.9,28.7,30.06,ENE,78,11.5,11.5,78,0.00,-SN,FEW,0.00,WeatherDisplay:10.37,2013-03-26 04:30:00,
2013-03-26 04:35:00,34.9,28.4,30.06,ENE,78,9.2,9.2,77,0.00,-SN,FEW,0.00,WeatherDisplay:10.37,2013-03-26 04:35:00,
2013-03-26 04:40:00,34.9,28.7,30.06,ENE,78,6.9,6.9,78,0.00,-SN,FEW,0.00,WeatherDisplay:10.37,2013-03-26 04:40:00,
2013-03-26 04:45:00,34.9,29.0,30.06,ENE,78,6.9,6.9,79,0.00,-SN,FEW,0.00,WeatherDisplay:10.37,2013-03-26 04:45:00,
2013-03-26 04:50:00,34.9,29.0,30.06,ENE,78,12.7,12.7,79,0.00,-SN,FEW,0.00,WeatherDisplay:10.37,2013-03-26 04:50:00,
2013-03-26 04:55:00,34.9,29.0,30.06,ENE,78,8.1,8.1,79,0.00,-SN,FEW,0.00,WeatherDisplay:10.37,2013-03-26 04:55:00,
2013-03-26 05:01:00,34.9,29.0,30.06,East,100,9.2,9.2,79,0.00,-SN,FEW,0.00,WeatherDisplay:10.37,2013-03-26 05:01:00,
2013-03-26 05:06:00,34.9,29.3,30.06,ENE,78,9.2,9.2,80,0.00,-SN,FEW,0.00,WeatherDisplay:10.37,2013-03-26 05:06:00,
2013-03-26 05:11:00,34.7,28.9,30.06,ENE,78,7.4,7.4,79,0.00,-SN,FEW,0.00,WeatherDisplay:10.37,2013-03-26 05:11:00,
2013-03-26 05:16:00,34.9,28.4,30.06,ENE,78,8.2,8.2,77,0.00,-SN,FEW,0.00,WeatherDisplay:10.37,2013-03-26 05:16:00,
2013-03-26 05:21:00,34.9,28.4,30.06,ENE,78,10.4,10.4,77,0.00,-SN,FEW,0.00,WeatherDisplay:10.37,2013-03-26 05:21:00,
2013-03-26 05:26:00,34.9,28.1,30.06,ENE,78,8.1,8.1,76,0.00,-SN,FEW,0.00,WeatherDisplay:10.37,2013-03-26 05:26:00,
2013-03-26 05:31:00,34.9,28.4,30.06,ENE,78,10.4,10.4,77,0.00,-SN,FEW,0.00,WeatherDisplay:10.37,2013-03-26 05:31:00,
2013-03-26 05:36:00,34.7,28.9,30.06,East,100,5.8,7.0,79,0.00,-SN,FEW,0.00,WeatherDisplay:10.37,2013-03-26 05:36:00,
2013-03-26 05:41:00,34.5,29.0,30.06,ENE,78,9.5,9.5,80,0.00,-SN,FEW,0.00,WeatherDisplay:10.37,2013-03-26 05:41:00,
2013-03-26 05:46:00,34.3,29.1,30.06,ENE,78,6.9,6.9,81,0.00,-SN,FEW,0.00,WeatherDisplay:10.37,2013-03-26 05:46:00,
2013-03-26 05:51:00,34.0,29.4,30.06,ENE,78,10.4,10.4,83,0.00,-SN,FEW,0.00,WeatherDisplay:10.37,2013-03-26 05:51:00,
2013-03-26 05:56:00,34.0,29.7,30.06,ENE,78,11.5,11.5,84,0.00,-SN,FEW,0.00,WeatherDisplay:10.37,2013-03-26 05:56:00,
2013-03-26 06:01:00,33.6,29.3,30.06,ENE,78,7.4,7.4,84,0.00,-SN,FEW,0.00,WeatherDisplay:10.37,2013-03-26 06:01:00,
2013-03-26 06:06:00,33.6,29.3,30.06,ENE,78,7.4,7.4,84,0.00,-SN,FEW,0.00,WeatherDisplay:10.37,2013-03-26 06:06:00,
2013-03-26 06:11:00,33.6,29.3,30.06,ENE,78,7.4,7.4,84,0.00,-SN,FEW,0.00,WeatherDisplay:10.37,2013-03-26 06:11:00,
2013-03-26 06:16:00,34.0,28.8,30.06,ENE,78,5.8,6.0,81,0.00,-SN,FEW,0.00,WeatherDisplay:10.37,2013-03-26 06:16:00,
2013-03-26 06:21:00,34.0,28.8,30.06,ENE,78,10.4,10.4,81,0.00,-SN,FEW,0.00,WeatherDisplay:10.37,2013-03-26 06:21:00,
2013-03-26 06:26:00,34.3,28.8,30.06,ENE,78,7.4,7.4,80,0.00,-SN,FEW,0.00,WeatherDisplay:10.37,2013-03-26 06:26:00,
2013-03-26 06:31:00,34.2,28.9,30.06,East,100,9.2,9.2,81,0.00,-SN,FEW,0.00,WeatherDisplay:10.37,2013-03-26 06:31:00,
2013-03-26 06:37:00,34.3,29.1,30.06,ESE,122,8.1,8.1,81,0.00,-SN,FEW,0.00,WeatherDisplay:10.37,2013-03-26 06:37:00,
2013-03-26 06:42:00,34.2,29.2,30.06,ENE,78,6.9,6.9,82,0.00,-SN,FEW,0.00,WeatherDisplay:10.37,2013-03-26 06:42:00,
2013-03-26 06:47:00,34.3,29.4,30.06,ENE,78,6.9,6.9,82,0.00,-SN,FEW,0.00,WeatherDisplay:10.37,2013-03-26 06:47:00,
2013-03-26 06:52:00,34.3,29.4,30.06,ENE,78,6.3,6.3,82,0.00,-SN,FEW,0.00,WeatherDisplay:10.37,2013-03-26 06:52:00,
2013-03-26 06:57:00,34.3,29.7,30.06,ENE,78,8.1,8.1,83,0.00,-SN,FEW,0.00,WeatherDisplay:10.37,2013-03-26 06:57:00,
2013-03-26 07:02:00,34.3,29.7,30.06,ENE,78,10.4,10.4,83,0.00,-SN,FEW,0.00,WeatherDisplay:10.37,2013-03-26 07:02:00,
2013-03-26 07:07:00,34.5,29.9,30.06,ENE,78,8.1,8.1,83,0.00,-SN,FEW,0.00,WeatherDisplay:10.37,2013-03-26 07:07:00,
2013-03-26 07:12:00,34.5,29.9,30.06,ENE,78,4.6,4.8,83,0.00,-SN,FEW,0.00,WeatherDisplay:10.37,2013-03-26 07:12:00,
2013-03-26 07:17:00,34.7,30.1,30.06,ENE,78,6.9,6.9,83,0.00,-SN,FEW,0.00,WeatherDisplay:10.37,2013-03-26 07:17:00,
2013-03-26 07:22:00,34.7,30.1,30.06,ENE,78,6.9,6.9,83,0.00,-SN,FEW,0.00,WeatherDisplay:10.37,2013-03-26 07:22:00,
2013-03-26 07:27:00,35.1,30.1,30.06,ENE,78,10.4,10.4,82,0.00,-SN,FEW,0.00,WeatherDisplay:10.37,2013-03-26 07:27:00,
2013-03-26 07:32:00,35.1,28.9,30.06,ENE,78,8.1,8.1,78,0.00,-SN,FEW,0.00,WeatherDisplay:10.37,2013-03-26 07:32:00,
2013-03-26 07:37:00,35.2,28.8,30.06,East,100,12.7,12.7,77,0.00,-SN,FEW,0.00,WeatherDisplay:10.37,2013-03-26 07:37:00,
2013-03-26 07:42:00,35.6,28.8,30.06,ENE,78,6.9,7.6,76,0.00,-SN,FEW,0.00,WeatherDisplay:10.37,2013-03-26 07:42:00,
2013-03-26 07:47:00,35.8,28.3,30.06,ENE,78,9.2,9.2,74,0.00,-SN,FEW,0.00,WeatherDisplay:10.37,2013-03-26 07:47:00,
2013-03-26 07:52:00,35.6,28.1,30.06,East,100,8.1,8.1,74,0.00,-SN,FEW,0.00,WeatherDisplay:10.37,2013-03-26 07:52:00,
2013-03-26 07:57:00,35.6,28.5,30.06,ENE,78,12.7,12.7,75,0.00,-SN,FEW,0.00,WeatherDisplay:10.37,2013-03-26 07:57:00,
2013-03-26 08:02:00,35.8,29.0,30.06,ENE,78,10.4,10.4,76,0.00,BKN,FEW,0.00,WeatherDisplay:10.37,2013-03-26 08:02:00,
2013-03-26 08:07:00,35.8,29.0,30.06,ENE,78,11.5,11.5,76,0.00,BKN,FEW,0.00,WeatherDisplay:10.37,2013-03-26 08:07:00,
2013-03-26 08:12:00,35.8,29.6,30.06,ESE,122,10.4,10.4,78,0.00,BKN,FEW,0.00,WeatherDisplay:10.37,2013-03-26 08:12:00,
2013-03-26 08:17:00,35.1,29.5,30.06,ESE,122,7.4,7.6,80,0.00,BKN,FEW,0.00,WeatherDisplay:10.37,2013-03-26 08:17:00,
2013-03-26 08:22:00,35.4,30.2,30.06,ENE,78,6.9,6.9,81,0.00,BKN,FEW,0.00,WeatherDisplay:10.37,2013-03-26 08:22:00,
2013-03-26 08:28:00,35.8,29.9,30.06,ENE,78,10.4,10.4,79,0.00,BKN,FEW,0.00,WeatherDisplay:10.37,2013-03-26 08:28:00,
2013-03-26 08:33:00,35.6,29.7,30.06,East,100,8.2,8.2,79,0.00,BKN,FEW,0.00,WeatherDisplay:10.37,2013-03-26 08:33:00,
2013-03-26 08:38:00,35.6,29.7,30.06,ENE,78,5.8,6.0,79,0.00,BKN,FEW,0.00,WeatherDisplay:10.37,2013-03-26 08:38:00,
2013-03-26 08:43:00,35.8,30.2,30.06,ENE,78,8.1,8.1,80,0.00,BKN,FEW,0.00,WeatherDisplay:10.37,2013-03-26 08:43:00,
2013-03-26 08:48:00,35.8,30.5,30.06,ENE,78,8.1,8.1,81,0.00,BKN,FEW,0.00,WeatherDisplay:10.37,2013-03-26 08:48:00,
2013-03-26 08:53:00,36.1,30.6,30.06,ENE,78,10.4,10.4,80,0.00,BKN,FEW,0.00,WeatherDisplay:10.37,2013-03-26 08:53:00,
2013-03-26 08:58:00,36.5,30.9,30.06,ENE,78,10.4,10.4,80,0.00,BKN,FEW,0.00,WeatherDisplay:10.37,2013-03-26 08:58:00,
2013-03-26 09:03:00,36.7,31.1,30.06,ESE,122,5.8,5.8,80,0.00,BKN,FEW,0.00,WeatherDisplay:10.37,2013-03-26 09:03:00,
2013-03-26 09:08:00,36.9,31.3,30.06,ENE,78,5.8,5.8,80,0.00,BKN,FEW,0.00,WeatherDisplay:10.37,2013-03-26 09:08:00,
2013-03-26 09:13:00,36.5,30.9,30.06,ENE,78,5.8,5.8,80,0.00,BKN,FEW,0.00,WeatherDisplay:10.37,2013-03-26 09:13:00,
2013-03-26 09:18:00,36.3,31.0,30.06,ENE,78,7.0,7.0,81,0.00,BKN,FEW,0.00,WeatherDisplay:10.37,2013-03-26 09:18:00,
2013-03-26 09:23:00,36.3,30.7,30.06,ENE,78,6.9,6.9,80,0.00,BKN,FEW,0.00,WeatherDisplay:10.37,2013-03-26 09:23:00,
2013-03-26 09:28:00,36.3,30.7,30.06,ENE,78,8.6,8.6,80,0.00,BKN,FEW,0.00,WeatherDisplay:10.37,2013-03-26 09:28:00,
2013-03-26 09:33:00,36.9,31.6,30.06,ESE,122,9.2,9.2,81,0.00,BKN,FEW,0.00,WeatherDisplay:10.37,2013-03-26 09:33:00,
2013-03-26 09:38:00,36.9,31.6,30.06,East,100,5.8,6.2,81,0.00,BKN,FEW,0.00,WeatherDisplay:10.37,2013-03-26 09:38:00,
2013-03-26 09:43:00,36.5,31.8,30.06,East,100,9.2,9.2,83,0.00,BKN,FEW,0.00,WeatherDisplay:10.37,2013-03-26 09:43:00,
2013-03-26 09:48:00,36.7,31.7,30.06,East,100,10.4,10.4,82,0.00,BKN,FEW,0.00,WeatherDisplay:10.37,2013-03-26 09:48:00,
2013-03-26 09:53:00,37.2,31.3,30.06,ENE,78,9.2,9.2,79,0.00,BKN,FEW,0.00,WeatherDisplay:10.37,2013-03-26 09:53:00,
2013-03-26 09:58:00,37.0,30.8,30.06,ENE,78,4.6,5.8,78,0.00,BKN,FEW,0.00,WeatherDisplay:10.37,2013-03-26 09:58:00,
2013-03-26 10:03:00,36.5,30.3,30.06,ENE,78,11.5,11.5,78,0.00,BKN,FEW,0.00,WeatherDisplay:10.37,2013-03-26 10:03:00,
2013-03-26 10:08:00,36.3,30.1,30.06,ENE,78,6.9,6.9,78,0.00,BKN,FEW,0.00,WeatherDisplay:10.37,2013-03-26 10:08:00,
2013-03-26 10:13:00,36.9,29.7,30.06,ENE,78,9.2,9.2,75,0.00,BKN,FEW,0.00,WeatherDisplay:10.37,2013-03-26 10:13:00,
2013-03-26 10:18:00,36.9,29.7,30.06,ENE,78,8.1,8.1,75,0.00,BKN,FEW,0.00,WeatherDisplay:10.37,2013-03-26 10:18:00,
2013-03-26 10:23:00,37.2,29.7,30.06,ENE,78,8.1,8.1,74,0.00,BKN,FEW,0.00,WeatherDisplay:10.37,2013-03-26 10:23:00,
2013-03-26 10:28:00,37.6,30.0,30.06,ENE,78,9.2,9.2,74,0.00,BKN,FEW,0.00,WeatherDisplay:10.37,2013-03-26 10:28:00,
2013-03-26 10:33:00,37.2,30.3,30.06,East,100,10.4,10.4,76,0.00,BKN,FEW,0.00,WeatherDisplay:10.37,2013-03-26 10:33:00,
2013-03-26 10:38:00,36.9,31.0,30.06,ENE,78,9.3,9.3,79,0.00,BKN,FEW,0.00,WeatherDisplay:10.37,2013-03-26 10:38:00,
2013-03-26 10:43:00,36.3,30.7,30.06,ENE,78,6.9,6.9,80,0.00,BKN,FEW,0.00,WeatherDisplay:10.37,2013-03-26 10:43:00,
2013-03-26 10:48:00,36.5,31.2,30.06,ENE,78,14.5,14.5,81,0.00,BKN,FEW,0.00,WeatherDisplay:10.37,2013-03-26 10:48:00,
2013-03-26 10:53:00,36.5,30.9,30.06,ENE,78,13.8,13.8,80,0.00,BKN,FEW,0.00,WeatherDisplay:10.37,2013-03-26 10:53:00,
2013-03-26 10:58:00,36.7,30.5,30.06,ENE,78,10.4,10.4,78,0.00,BKN,FEW,0.00,WeatherDisplay:10.37,2013-03-26 10:58:00,
2013-03-26 11:03:00,36.7,30.8,30.06,East,100,8.1,8.1,79,0.00,BKN,FEW,0.00,WeatherDisplay:10.37,2013-03-26 11:03:00,
2013-03-26 11:08:00,36.9,31.0,30.06,ENE,78,8.1,8.1,79,0.00,BKN,FEW,0.00,WeatherDisplay:10.37,2013-03-26 11:08:00,
2013-03-26 11:13:00,37.2,31.3,30.06,ENE,78,8.1,8.1,79,0.00,BKN,FEW,0.00,WeatherDisplay:10.37,2013-03-26 11:13:00,
2013-03-26 11:18:00,37.2,31.0,30.06,ENE,78,10.5,10.5,78,0.00,BKN,FEW,0.00,WeatherDisplay:10.37,2013-03-26 11:18:00,
2013-03-26 11:23:00,37.6,31.7,30.06,ENE,78,9.2,9.2,79,0.00,BKN,FEW,0.00,WeatherDisplay:10.37,2013-03-26 11:23:00,
2013-03-26 11:28:00,37.6,32.0,30.06,ENE,78,9.2,9.2,80,0.00,BKN,FEW,0.00,WeatherDisplay:10.37,2013-03-26 11:28:00,
2013-03-26 11:33:00,37.6,32.0,30.06,ENE,78,8.1,8.1,80,0.00,BKN,FEW,0.00,WeatherDisplay:10.37,2013-03-26 11:33:00,
2013-03-26 11:38:00,37.0,31.4,30.06,East,100,13.0,13.0,80,0.00,BKN,FEW,0.00,WeatherDisplay:10.37,2013-03-26 11:38:00,
2013-03-26 11:43:00,37.0,31.4,30.06,ENE,78,8.1,8.1,80,0.00,BKN,FEW,0.00,WeatherDisplay:10.37,2013-03-26 11:43:00,
2013-03-26 11:48:00,37.2,31.6,30.06,ENE,78,5.8,5.8,80,0.00,BKN,FEW,0.00,WeatherDisplay:10.37,2013-03-26 11:48:00,
2013-03-26 11:53:00,37.6,32.0,30.06,East,100,8.1,8.1,80,0.03,RA,FEW,0.03,WeatherDisplay:10.37,2013-03-26 11:53:00,
2013-03-26 11:58:00,38.3,31.7,30.06,ENE,78,9.2,9.2,77,0.03,RA,FEW,0.03,WeatherDisplay:10.37,2013-03-26 11:58:00,
2013-03-26 12:03:00,39.0,31.8,30.06,ENE,78,11.5,11.5,75,0.03,BKN,FEW,0.03,WeatherDisplay:10.37,2013-03-26 12:03:00,
2013-03-26 12:08:00,39.0,31.8,30.06,ENE,78,9.2,9.2,75,0.03,BKN,FEW,0.03,WeatherDisplay:10.37,2013-03-26 12:08:00,
2013-03-26 12:13:00,39.2,31.6,30.06,ENE,78,11.5,11.5,74,0.03,BKN,FEW,0.03,WeatherDisplay:10.37,2013-03-26 12:13:00,
2013-03-26 12:18:00,38.3,31.4,30.06,ENE,78,10.4,10.4,76,0.03,BKN,FEW,0.03,WeatherDisplay:10.37,2013-03-26 12:18:00,
2013-03-26 12:23:00,38.1,31.5,30.06,ENE,78,5.8,6.9,77,0.03,BKN,FEW,0.03,WeatherDisplay:10.37,2013-03-26 12:23:00,
2013-03-26 12:28:00,38.3,31.7,30.06,ENE,78,6.9,6.9,77,0.03,BKN,FEW,0.03,WeatherDisplay:10.37,2013-03-26 12:28:00,
2013-03-26 12:33:00,38.3,31.7,30.06,NW,325,9.2,9.2,77,0.03,BKN,FEW,0.03,WeatherDisplay:10.37,2013-03-26 12:33:00,
2013-03-26 12:38:00,37.9,31.0,30.06,ENE,78,10.4,10.4,76,0.03,BKN,FEW,0.03,WeatherDisplay:10.37,2013-03-26 12:38:00,
2013-03-26 12:43:00,37.9,30.7,30.06,ENE,78,12.7,12.7,75,0.03,BKN,FEW,0.03,WeatherDisplay:10.37,2013-03-26 12:43:00,
2013-03-26 12:48:00,38.7,31.1,30.06,East,100,12.7,12.7,74,0.03,BKN,FEW,0.03,WeatherDisplay:10.37,2013-03-26 12:48:00,
2013-03-26 12:53:00,38.8,31.3,30.06,ENE,78,8.1,8.1,74,0.00,BKN,FEW,0.03,WeatherDisplay:10.37,2013-03-26 12:53:00,
2013-03-26 12:58:00,39.4,31.1,30.06,East,100,9.2,9.2,72,0.00,BKN,FEW,0.03,WeatherDisplay:10.37,2013-03-26 12:58:00,
2013-03-26 13:03:00,39.4,30.4,30.06,ENE,78,10.9,10.9,70,0.00,BKN,FEW,0.03,WeatherDisplay:10.37,2013-03-26 13:03:00,
2013-03-26 13:08:00,39.7,31.4,30.06,ENE,78,9.2,9.2,72,0.00,BKN,FEW,0.03,WeatherDisplay:10.37,2013-03-26 13:08:00,
2013-03-26 13:13:00,39.9,32.0,30.06,ENE,78,8.1,8.1,73,0.00,BKN,FEW,0.03,WeatherDisplay:10.37,2013-03-26 13:13:00,
2013-03-26 13:18:00,40.5,31.8,30.06,ENE,78,17.3,17.3,71,0.00,BKN,FEW,0.03,WeatherDisplay:10.37,2013-03-26 13:18:00,
2013-03-26 13:23:00,40.6,32.0,30.06,ENE,78,12.7,12.7,71,0.00,BKN,FEW,0.03,WeatherDisplay:10.37,2013-03-26 13:23:00,
2013-03-26 13:28:00,40.6,30.9,30.06,ENE,78,20.7,20.7,68,0.00,BKN,FEW,0.03,WeatherDisplay:10.37,2013-03-26 13:28:00,
2013-03-26 13:33:00,40.5,31.1,30.06,ENE,78,10.4,10.4,69,0.00,BKN,FEW,0.03,WeatherDisplay:10.37,2013-03-26 13:33:00,
2013-03-26 13:39:00,40.6,31.3,30.06,ENE,78,11.5,11.5,69,0.00,BKN,FEW,0.03,WeatherDisplay:10.37,2013-03-26 13:39:00,
2013-03-26 13:44:00,40.6,30.9,30.03,ENE,78,12.7,12.7,68,0.00,BKN,FEW,0.03,WeatherDisplay:10.37,2013-03-26 13:44:00,
2013-03-26 13:49:00,41.2,31.8,30.03,ENE,78,11.5,11.5,69,0.00,BKN,FEW,0.03,WeatherDisplay:10.37,2013-03-26 13:49:00,
2013-03-26 13:54:00,41.2,32.1,30.03,ENE,78,16.1,16.1,70,0.00,BKN,FEW,0.03,WeatherDisplay:10.37,2013-03-26 13:54:00,
2013-03-26 13:59:00,40.1,31.1,30.03,ENE,78,11.5,11.5,70,0.00,BKN,FEW,0.03,WeatherDisplay:10.37,2013-03-26 13:59:00,
2013-03-26 14:04:00,39.9,31.3,30.03,ENE,78,6.9,7.7,71,0.00,BKN,FEW,0.03,WeatherDisplay:10.37,2013-03-26 14:04:00,
2013-03-26 14:09:00,39.9,32.0,30.03,ESE,122,9.2,9.2,73,0.00,BKN,FEW,0.03,WeatherDisplay:10.37,2013-03-26 14:09:00,
2013-03-26 14:14:00,39.2,31.6,30.03,ENE,78,11.5,11.5,74,0.00,BKN,FEW,0.03,WeatherDisplay:10.37,2013-03-26 14:14:00,
2013-03-26 14:19:00,37.9,31.4,30.03,ESE,122,10.4,10.4,77,0.00,BKN,FEW,0.03,WeatherDisplay:10.37,2013-03-26 14:19:00,
2013-03-26 14:24:00,37.6,31.3,30.03,ENE,78,4.6,6.0,78,0.00,BKN,FEW,0.03,WeatherDisplay:10.37,2013-03-26 14:24:00,
2013-03-26 14:29:00,37.2,31.6,30.03,NW,325,5.8,5.8,80,0.00,BKN,FEW,0.03,WeatherDisplay:10.37,2013-03-26 14:29:00,
2013-03-26 14:34:00,37.0,31.8,30.03,ENE,78,10.9,10.9,81,0.00,BKN,FEW,0.03,WeatherDisplay:10.37,2013-03-26 14:34:00,
2013-03-26 14:39:00,37.2,31.9,30.03,ENE,78,12.7,12.7,81,0.00,BKN,FEW,0.03,WeatherDisplay:10.37,2013-03-26 14:39:00,
2013-03-26 14:44:00,37.4,32.1,30.01,ENE,78,8.1,8.1,81,0.00,BKN,FEW,0.03,WeatherDisplay:10.37,2013-03-26 14:44:00,
2013-03-26 14:49:00,37.6,32.0,30.01,East,100,9.2,9.2,80,0.00,BKN,FEW,0.03,WeatherDisplay:10.37,2013-03-26 14:49:00,
2013-03-26 14:54:00,38.1,32.2,30.01,ENE,78,10.4,10.4,79,0.00,BKN,FEW,0.03,WeatherDisplay:10.37,2013-03-26 14:54:00,
2013-03-26 14:59:00,38.3,32.4,30.01,East,100,12.7,12.7,79,0.00,BKN,FEW,0.03,WeatherDisplay:10.37,2013-03-26 14:59:00,
2013-03-26 15:04:00,38.3,32.4,30.01,ESE,122,6.9,6.9,79,0.00,SCT,FEW,0.03,WeatherDisplay:10.37,2013-03-26 15:04:00,
2013-03-26 15:09:00,38.1,32.2,30.01,ENE,78,9.2,9.2,79,0.00,SCT,FEW,0.03,WeatherDisplay:10.37,2013-03-26 15:09:00,
2013-03-26 15:14:00,38.3,32.4,30.01,WNW,302,3.5,6.6,79,0.00,SCT,FEW,0.03,WeatherDisplay:10.37,2013-03-26 15:14:00,
2013-03-26 15:19:00,38.7,33.0,30.01,ENE,78,5.8,6.0,80,0.00,SCT,FEW,0.03,WeatherDisplay:10.37,2013-03-26 15:19:00,
2013-03-26 15:24:00,38.7,32.4,30.01,ENE,78,5.8,6.8,78,0.00,SCT,FEW,0.03,WeatherDisplay:10.37,2013-03-26 15:24:00,
2013-03-26 15:29:00,38.5,32.2,30.01,ENE,78,11.5,11.5,78,0.00,SCT,FEW,0.03,WeatherDisplay:10.37,2013-03-26 15:29:00,
2013-03-26 15:34:00,39.2,32.3,30.01,ENE,78,11.5,11.5,76,0.00,SCT,FEW,0.03,WeatherDisplay:10.37,2013-03-26 15:34:00,
2013-03-26 15:39:00,39.7,32.8,30.01,ENE,78,8.1,8.1,76,0.00,SCT,FEW,0.03,WeatherDisplay:10.37,2013-03-26 15:39:00,
2013-03-26 15:44:00,40.5,33.2,30.01,NW,325,8.1,8.1,75,0.00,SCT,FEW,0.03,WeatherDisplay:10.37,2013-03-26 15:44:00,
2013-03-26 15:49:00,40.5,33.2,30.01,ENE,78,6.9,7.1,75,0.03,RA,FEW,0.06,WeatherDisplay:10.37,2013-03-26 15:49:00,
2013-03-26 15:54:00,39.7,32.8,30.01,NW,325,8.1,8.1,76,0.03,RA,FEW,0.06,WeatherDisplay:10.37,2013-03-26 15:54:00,
2013-03-26 15:59:00,39.7,33.1,30.01,East,100,9.2,9.2,77,0.03,SCT,FEW,0.06,WeatherDisplay:10.37,2013-03-26 15:59:00,
2013-03-26 16:04:00,39.2,32.3,30.01,East,100,4.6,5.0,76,0.03,BKN,FEW,0.06,WeatherDisplay:10.37,2013-03-26 16:04:00,
2013-03-26 16:09:00,39.2,31.9,30.01,East,100,10.4,10.4,75,0.03,BKN,FEW,0.06,WeatherDisplay:10.37,2013-03-26 16:09:00,
2013-03-26 16:14:00,39.0,32.1,30.01,ENE,78,9.2,9.2,76,0.03,BKN,FEW,0.06,WeatherDisplay:10.37,2013-03-26 16:14:00,
2013-03-26 16:19:00,38.7,31.7,30.01,ENE,78,8.1,8.1,76,0.03,BKN,FEW,0.06,WeatherDisplay:10.37,2013-03-26 16:19:00,
2013-03-26 16:24:00,38.5,31.9,30.01,ENE,78,9.2,9.2,77,0.03,BKN,FEW,0.06,WeatherDisplay:10.37,2013-03-26 16:24:00,
2013-03-26 16:29:00,38.5,31.6,30.01,ENE,78,11.5,11.5,76,0.03,BKN,FEW,0.06,WeatherDisplay:10.37,2013-03-26 16:29:00,
2013-03-26 16:34:00,38.3,31.7,30.01,East,100,6.9,7.4,77,0.03,BKN,FEW,0.06,WeatherDisplay:10.37,2013-03-26 16:34:00,
2013-03-26 16:39:00,37.8,31.2,30.01,ENE,78,10.4,10.4,77,0.03,BKN,FEW,0.06,WeatherDisplay:10.37,2013-03-26 16:39:00,
2013-03-26 16:44:00,37.0,31.4,30.01,ENE,78,8.1,8.1,80,0.03,BKN,FEW,0.06,WeatherDisplay:10.37,2013-03-26 16:44:00,
2013-03-26 16:49:00,36.9,31.6,30.01,ENE,78,6.9,6.9,81,0.00,BKN,FEW,0.06,WeatherDisplay:10.37,2013-03-26 16:49:00,
2013-03-26 16:54:00,36.9,31.6,30.01,ENE,78,8.1,8.1,81,0.00,BKN,FEW,0.06,WeatherDisplay:10.37,2013-03-26 16:54:00,
2013-03-26 16:59:00,36.5,31.2,30.01,ENE,78,9.2,9.2,81,0.00,BKN,FEW,0.06,WeatherDisplay:10.37,2013-03-26 16:59:00,
2013-03-26 17:04:00,36.5,31.2,30.01,ENE,78,10.4,10.4,81,0.00,BKN,FEW,0.06,WeatherDisplay:10.37,2013-03-26 17:04:00,
2013-03-26 17:09:00,36.9,31.6,30.01,East,100,9.2,9.2,81,0.00,BKN,FEW,0.06,WeatherDisplay:10.37,2013-03-26 17:09:00,
2013-03-26 17:14:00,37.0,31.1,30.01,ENE,78,7.8,7.8,79,0.00,BKN,FEW,0.06,WeatherDisplay:10.37,2013-03-26 17:14:00,
2013-03-26 17:19:00,37.0,31.1,30.01,ENE,78,8.2,8.2,79,0.00,BKN,FEW,0.06,WeatherDisplay:10.37,2013-03-26 17:19:00,
2013-03-26 17:24:00,37.2,31.3,30.01,ENE,78,8.1,8.1,79,0.00,BKN,FEW,0.06,WeatherDisplay:10.37,2013-03-26 17:24:00,
2013-03-26 17:29:00,37.0,31.1,30.01,ENE,78,9.5,9.5,79,0.00,BKN,FEW,0.06,WeatherDisplay:10.37,2013-03-26 17:29:00,
2013-03-26 17:34:00,36.9,30.6,30.01,ENE,78,10.4,10.4,78,0.00,BKN,FEW,0.06,WeatherDisplay:10.37,2013-03-26 17:34:00,
2013-03-26 17:39:00,36.7,30.5,30.01,ENE,78,5.8,6.4,78,0.00,BKN,FEW,0.06,WeatherDisplay:10.37,2013-03-26 17:39:00,
2013-03-26 17:44:00,37.0,30.5,30.01,East,100,8.1,8.1,77,0.00,BKN,FEW,0.06,WeatherDisplay:10.37,2013-03-26 17:44:00,
2013-03-26 17:49:00,36.9,30.3,30.01,ENE,78,10.4,10.4,77,0.00,BKN,FEW,0.06,WeatherDisplay:10.37,2013-03-26 17:49:00,
2013-03-26 17:54:00,36.5,30.6,30.01,ENE,78,6.9,6.9,79,0.00,BKN,FEW,0.06,WeatherDisplay:10.37,2013-03-26 17:54:00,
2013-03-26 17:59:00,36.3,30.4,30.01,WNW,302,5.8,5.8,79,0.00,BKN,FEW,0.06,WeatherDisplay:10.37,2013-03-26 17:59:00,
2013-03-26 18:04:00,36.3,30.1,30.01,ENE,78,9.2,9.2,78,0.00,BKN,FEW,0.06,WeatherDisplay:10.37,2013-03-26 18:04:00,
2013-03-26 18:09:00,36.3,30.1,30.01,ENE,78,8.6,8.6,78,0.00,BKN,FEW,0.06,WeatherDisplay:10.37,2013-03-26 18:09:00,
2013-03-26 18:14:00,36.3,30.4,30.01,ENE,78,8.2,8.2,79,0.00,BKN,FEW,0.06,WeatherDisplay:10.37,2013-03-26 18:14:00,
2013-03-26 18:20:00,36.1,30.6,30.01,East,100,10.4,10.4,80,0.00,BKN,FEW,0.06,WeatherDisplay:10.37,2013-03-26 18:20:00,
2013-03-26 18:25:00,35.8,30.2,30.01,WNW,302,10.4,10.4,80,0.00,BKN,FEW,0.06,WeatherDisplay:10.37,2013-03-26 18:25:00,
2013-03-26 18:30:00,35.6,30.0,30.01,SE,145,6.9,6.9,80,0.00,BKN,FEW,0.06,WeatherDisplay:10.37,2013-03-26 18:30:00,
2013-03-26 18:35:00,35.6,29.7,30.01,ENE,78,5.8,5.8,79,0.00,BKN,FEW,0.06,WeatherDisplay:10.37,2013-03-26 18:35:00,
2013-03-26 18:40:00,35.6,29.7,30.01,ENE,78,5.8,5.8,79,0.00,BKN,FEW,0.06,WeatherDisplay:10.37,2013-03-26 18:40:00,
2013-03-26 18:45:00,35.6,30.3,30.01,ENE,78,5.8,6.5,81,0.00,BKN,FEW,0.06,WeatherDisplay:10.37,2013-03-26 18:45:00,
2013-03-26 18:50:00,35.4,30.2,30.01,ESE,122,3.5,5.7,81,0.00,BKN,FEW,0.06,WeatherDisplay:10.37,2013-03-26 18:50:00,
2013-03-26 18:55:00,35.1,29.5,30.01,ENE,78,4.6,4.6,80,0.00,BKN,FEW,0.06,WeatherDisplay:10.37,2013-03-26 18:55:00,
2013-03-26 19:00:00,35.1,29.2,30.01,ENE,78,4.6,4.6,79,0.00,BKN,FEW,0.06,WeatherDisplay:10.37,2013-03-26 19:00:00,
2013-03-26 19:05:00,35.4,29.2,30.01,ENE,78,3.5,3.5,78,0.00,BKN,FEW,0.06,WeatherDisplay:10.37,2013-03-26 19:05:00,
2013-03-26 19:10:00,35.4,29.2,30.01,East,100,10.4,10.4,78,0.00,BKN,FEW,0.06,WeatherDisplay:10.37,2013-03-26 19:10:00,
2013-03-26 19:15:00,35.6,29.4,30.01,ENE,78,5.8,5.8,78,0.00,BKN,FEW,0.06,WeatherDisplay:10.37,2013-03-26 19:15:00,
2013-03-26 19:20:00,35.8,29.3,30.01,ENE,78,6.3,6.3,77,0.00,BKN,FEW,0.06,WeatherDisplay:10.37,2013-03-26 19:20:00,
2013-03-26 19:25:00,35.8,29.3,30.01,ENE,78,6.9,6.9,77,0.00,BKN,FEW,0.06,WeatherDisplay:10.37,2013-03-26 19:25:00,
2013-03-26 19:30:00,35.6,29.1,30.01,East,100,6.9,6.9,77,0.00,BKN,FEW,0.06,WeatherDisplay:10.37,2013-03-26 19:30:00,
2013-03-26 19:35:00,35.8,29.3,30.01,ENE,78,10.4,10.4,77,0.00,BKN,FEW,0.06,WeatherDisplay:10.37,2013-03-26 19:35:00,
2013-03-26 19:40:00,36.1,29.6,30.01,East,100,6.9,6.9,77,0.00,BKN,FEW,0.06,WeatherDisplay:10.37,2013-03-26 19:40:00,
2013-03-26 19:45:00,36.1,29.6,30.01,East,100,9.2,9.2,77,0.00,BKN,FEW,0.06,WeatherDisplay:10.37,2013-03-26 19:45:00,
2013-03-26 19:50:00,36.1,28.6,30.01,East,100,10.4,10.4,74,0.00,BKN,FEW,0.06,WeatherDisplay:10.37,2013-03-26 19:50:00,
2013-03-26 19:55:00,36.1,28.6,30.01,ENE,78,6.3,6.3,74,0.00,BKN,FEW,0.06,WeatherDisplay:10.37,2013-03-26 19:55:00,
2013-03-26 20:00:00,36.3,29.2,30.01,ENE,78,8.1,8.1,75,0.00,BKN,FEW,0.06,WeatherDisplay:10.37,2013-03-26 20:00:00,
2013-03-26 20:05:00,36.3,30.4,30.01,SE,145,10.4,10.4,79,0.00,BKN,FEW,0.06,WeatherDisplay:10.37,2013-03-26 20:05:00,
2013-03-26 20:10:00,35.8,29.6,30.01,WNW,302,11.5,11.5,78,0.00,BKN,FEW,0.06,WeatherDisplay:10.37,2013-03-26 20:10:00,
2013-03-26 20:15:00,35.8,29.6,30.01,NW,325,4.6,5.9,78,0.00,BKN,FEW,0.06,WeatherDisplay:10.37,2013-03-26 20:15:00,
2013-03-26 20:20:00,35.6,30.0,30.01,ENE,78,4.6,4.6,80,0.00,BKN,FEW,0.06,WeatherDisplay:10.37,2013-03-26 20:20:00,
2013-03-26 20:25:00,35.4,30.2,30.01,ENE,78,10.4,10.4,81,0.00,BKN,FEW,0.06,WeatherDisplay:10.37,2013-03-26 20:25:00,
2013-03-26 20:30:00,35.2,30.6,30.01,ENE,78,6.6,6.6,83,0.00,BKN,FEW,0.06,WeatherDisplay:10.37,2013-03-26 20:30:00,
2013-03-26 20:35:00,34.9,30.8,30.01,ENE,78,8.1,8.1,85,0.00,BKN,FEW,0.06,WeatherDisplay:10.37,2013-03-26 20:35:00,
2013-03-26 20:40:00,34.9,30.8,30.01,ENE,78,5.8,5.8,85,0.00,BKN,FEW,0.06,WeatherDisplay:10.37,2013-03-26 20:40:00,
2013-03-26 20:45:00,34.9,30.8,30.01,ESE,122,6.9,6.9,85,0.00,BKN,FEW,0.06,WeatherDisplay:10.37,2013-03-26 20:45:00,
2013-03-26 20:50:00,34.9,30.5,30.01,ENE,78,4.6,4.6,84,0.00,BKN,FEW,0.06,WeatherDisplay:10.37,2013-03-26 20:50:00,
2013-03-26 20:55:00,35.1,30.4,30.01,ENE,78,5.8,5.8,83,0.00,BKN,FEW,0.06,WeatherDisplay:10.37,2013-03-26 20:55:00,
2013-03-26 21:00:00,35.4,30.5,30.01,East,100,7.1,7.1,82,0.00,BKN,FEW,0.06,WeatherDisplay:10.37,2013-03-26 21:00:00,
2013-03-26 21:05:00,35.4,30.2,30.01,ENE,78,6.0,6.0,81,0.00,BKN,FEW,0.06,WeatherDisplay:10.37,2013-03-26 21:05:00,
2013-03-26 21:10:00,35.4,29.9,30.01,East,100,2.3,4.5,80,0.00,BKN,FEW,0.06,WeatherDisplay:10.37,2013-03-26 21:10:00,
2013-03-26 21:15:00,35.6,29.4,30.01,ENE,78,5.8,5.8,78,0.00,BKN,FEW,0.06,WeatherDisplay:10.37,2013-03-26 21:15:00,
2013-03-26 21:20:00,35.6,29.1,30.01,ENE,78,4.6,5.0,77,0.00,BKN,FEW,0.06,WeatherDisplay:10.37,2013-03-26 21:20:00,
2013-03-26 21:25:00,35.6,28.8,30.01,East,100,5.8,5.8,76,0.00,BKN,FEW,0.06,WeatherDisplay:10.37,2013-03-26 21:25:00,
2013-03-26 21:30:00,36.1,29.3,30.01,East,100,5.8,5.8,76,0.00,BKN,FEW,0.06,WeatherDisplay:10.37,2013-03-26 21:30:00,
2013-03-26 21:35:00,36.1,29.9,30.01,East,100,11.5,11.5,78,0.00,BKN,FEW,0.06,WeatherDisplay:10.37,2013-03-26 21:35:00,
2013-03-26 21:40:00,35.8,30.5,30.01,East,100,8.1,8.1,81,0.00,BKN,FEW,0.06,WeatherDisplay:10.37,2013-03-26 21:40:00,
2013-03-26 21:45:00,35.6,30.6,30.01,ENE,78,8.5,8.5,82,0.00,BKN,FEW,0.06,WeatherDisplay:10.37,2013-03-26 21:45:00,
2013-03-26 21:50:00,35.4,30.8,30.01,ENE,78,5.8,6.3,83,0.00,BKN,FEW,0.06,WeatherDisplay:10.37,2013-03-26 21:50:00,
2013-03-26 21:55:00,35.1,30.4,30.01,ENE,78,6.9,6.9,83,0.00,BKN,FEW,0.06,WeatherDisplay:10.37,2013-03-26 21:55:00,
2013-03-26 22:00:00,35.1,30.4,30.01,ENE,78,4.6,4.6,83,0.00,BKN,FEW,0.06,WeatherDisplay:10.37,2013-03-26 22:00:00,
2013-03-26 22:05:00,35.1,30.4,30.01,ENE,78,5.8,5.8,83,0.00,BKN,FEW,0.06,WeatherDisplay:10.37,2013-03-26 22:05:00,
2013-03-26 22:10:00,35.4,30.2,30.01,East,100,3.5,4.5,81,0.00,BKN,FEW,0.06,WeatherDisplay:10.37,2013-03-26 22:10:00,
2013-03-26 22:15:00,35.4,29.9,30.01,ENE,78,5.8,5.8,80,0.00,BKN,FEW,0.06,WeatherDisplay:10.37,2013-03-26 22:15:00,
2013-03-26 22:20:00,35.4,29.2,30.01,ENE,78,6.9,6.9,78,0.00,BKN,FEW,0.06,WeatherDisplay:10.37,2013-03-26 22:20:00,
2013-03-26 22:25:00,35.6,29.4,30.01,ENE,78,6.9,6.9,78,0.00,BKN,FEW,0.06,WeatherDisplay:10.37,2013-03-26 22:25:00,
2013-03-26 22:30:00,35.6,28.8,30.01,ENE,78,11.1,11.1,76,0.00,BKN,FEW,0.06,WeatherDisplay:10.37,2013-03-26 22:30:00,
2013-03-26 22:35:00,35.8,29.0,30.01,ENE,78,13.8,13.8,76,0.00,BKN,FEW,0.06,WeatherDisplay:10.37,2013-03-26 22:35:00,
2013-03-26 22:40:00,35.6,29.7,30.01,East,100,11.5,11.5,79,0.00,BKN,FEW,0.06,WeatherDisplay:10.37,2013-03-26 22:40:00,
2013-03-26 22:45:00,35.6,29.7,30.01,SE,145,9.2,9.2,79,0.00,BKN,FEW,0.06,WeatherDisplay:10.37,2013-03-26 22:45:00,
2013-03-26 22:50:00,35.4,30.2,30.01,ENE,78,8.8,8.8,81,0.00,BKN,FEW,0.06,WeatherDisplay:10.37,2013-03-26 22:50:00,
2013-03-26 22:55:00,34.9,30.5,30.01,ENE,78,6.9,6.9,84,0.00,BKN,FEW,0.06,WeatherDisplay:10.37,2013-03-26 22:55:00,
2013-03-26 23:00:00,34.7,30.9,30.01,East,100,3.5,6.2,86,0.00,BKN,FEW,0.06,WeatherDisplay:10.37,2013-03-26 23:00:00,
2013-03-26 23:05:00,34.3,30.6,30.01,ENE,78,4.6,4.7,86,0.00,BKN,FEW,0.06,WeatherDisplay:10.37,2013-03-26 23:05:00,
2013-03-26 23:10:00,34.2,30.7,30.01,ENE,78,5.8,5.8,87,0.00,BKN,FEW,0.06,WeatherDisplay:10.37,2013-03-26 23:10:00,
2013-03-26 23:15:00,34.3,30.9,30.01,ENE,78,6.9,6.9,87,0.00,BKN,FEW,0.06,WeatherDisplay:10.37,2013-03-26 23:15:00,
2013-03-26 23:20:00,34.2,31.0,30.01,ENE,78,4.6,4.6,88,0.00,BKN,FEW,0.06,WeatherDisplay:10.37,2013-03-26 23:20:00,
2013-03-26 23:25:00,34.2,31.0,30.01,ENE,78,3.5,3.6,88,0.00,BKN,FEW,0.06,WeatherDisplay:10.37,2013-03-26 23:25:00,
2013-03-26 23:30:00,34.2,31.0,30.01,ESE,122,3.5,3.5,88,0.00,BKN,FEW,0.06,WeatherDisplay:10.37,2013-03-26 23:30:00,
2013-03-26 23:35:00,34.3,30.9,30.01,East,100,6.9,6.9,87,0.00,BKN,FEW,0.06,WeatherDisplay:10.37,2013-03-26 23:35:00,
2013-03-26 23:40:00,34.7,30.9,30.01,ENE,78,6.9,6.9,86,0.00,BKN,FEW,0.06,WeatherDisplay:10.37,2013-03-26 23:40:00,
2013-03-26 23:45:00,34.7,30.7,30.01,ENE,78,7.1,7.1,85,0.00,BKN,FEW,0.06,WeatherDisplay:10.37,2013-03-26 23:45:00,
2013-03-26 23:50:00,34.9,30.2,30.01,ENE,78,6.9,6.9,83,0.00,BKN,FEW,0.06,WeatherDisplay:10.37,2013-03-26 23:50:00,
2013-03-26 23:56:00,35.1,30.1,30.01,ENE,78,5.8,6.6,82,0.00,BKN,FEW,0.06,WeatherDisplay:10.37,2013-03-26 23:56:00,